createdAt,value
2023-04-29T00:02:16.845Z,12.60
2023-04-29T00:07:19.159Z,12.60
2023-04-29T00:12:21.123Z,12.70
2023-04-29T00:17:22.914Z,12.70
2023-04-29T00:22:24.716Z,12.60
2023-04-29T00:27:26.462Z,12.60
2023-04-29T00:32:28.196Z,12.60
2023-04-29T00:37:29.955Z,12.60
2023-04-29T00:42:33.837Z,12.60
2023-04-29T00:47:35.799Z,12.50
2023-04-29T00:52:39.512Z,12.50
2023-04-29T00:57:41.192Z,12.50
2023-04-29T01:02:44.803Z,12.40
2023-04-29T01:08:01.672Z,12.50
2023-04-29T01:13:35.146Z,12.50
2023-04-29T01:18:45.520Z,12.40
2023-04-29T01:23:56.059Z,12.40
2023-04-29T01:29:30.597Z,12.40
2023-04-29T01:34:42.085Z,12.30
2023-04-29T01:40:02.838Z,12.30
2023-04-29T01:45:11.541Z,12.30
2023-04-29T01:50:13.405Z,12.20
2023-04-29T01:55:15.642Z,12.20
2023-04-29T02:00:38.601Z,12.10
2023-04-29T02:05:40.753Z,12.00
2023-04-29T02:10:42.722Z,11.90
2023-04-29T02:16:14.478Z,11.80
2023-04-29T02:21:27.216Z,11.80
2023-04-29T02:26:29.034Z,11.70
2023-04-29T02:31:31.388Z,11.70
2023-04-29T02:36:33.359Z,11.70
2023-04-29T02:41:35.079Z,11.70
2023-04-29T02:46:37.656Z,11.70
2023-04-29T02:51:39.604Z,11.60
2023-04-29T02:56:41.399Z,11.60
2023-04-29T03:01:43.404Z,11.60
2023-04-29T03:06:47.751Z,11.60
2023-04-29T03:11:49.774Z,11.60
2023-04-29T03:16:52.171Z,11.60
2023-04-29T03:21:54.236Z,11.60
2023-04-29T03:26:56.772Z,11.60
2023-04-29T03:31:58.725Z,11.60
2023-04-29T03:37:01.190Z,11.70
2023-04-29T03:42:04.478Z,11.70
2023-04-29T03:47:06.701Z,11.70
2023-04-29T03:52:09.078Z,11.80
2023-04-29T03:57:11.355Z,11.80
2023-04-29T04:02:13.683Z,11.80
2023-04-29T04:07:15.864Z,11.90
2023-04-29T04:12:37.702Z,11.90
2023-04-29T04:17:39.720Z,12.00
2023-04-29T04:22:42.022Z,11.90
2023-04-29T04:27:57.920Z,12.00
2023-04-29T04:33:16.608Z,11.90
2023-04-29T04:38:20.750Z,12.00
2023-04-29T04:43:22.794Z,12.10
2023-04-29T04:48:25.736Z,12.20
2023-04-29T04:53:28.593Z,12.30
2023-04-29T04:58:34.695Z,12.30
2023-04-29T05:03:36.951Z,12.30
2023-04-29T05:08:39.273Z,12.30
2023-04-29T05:13:42.885Z,12.30
2023-04-29T05:18:46.547Z,12.30
2023-04-29T05:23:49.697Z,12.40
2023-04-29T05:28:51.668Z,12.30
2023-04-29T05:33:55.231Z,12.30
2023-04-29T05:38:57.396Z,12.40
2023-04-29T05:43:59.288Z,12.30
2023-04-29T05:49:01.170Z,12.40
2023-04-29T05:54:02.936Z,12.40
2023-04-29T05:59:05.568Z,12.40
2023-04-29T06:04:08.245Z,12.50
2023-04-29T06:09:28.711Z,12.50
2023-04-29T06:14:34.564Z,12.50
2023-04-29T06:19:36.497Z,12.50
2023-04-29T06:24:38.308Z,12.50
2023-04-29T06:29:41.105Z,12.50
2023-04-29T06:34:43.115Z,12.50
2023-04-29T06:40:11.975Z,12.40
2023-04-29T06:45:32.477Z,12.50
2023-04-29T06:50:52.803Z,12.50
2023-04-29T06:55:54.571Z,12.50
2023-04-29T07:00:56.395Z,12.40
2023-04-29T07:05:58.188Z,12.30
2023-04-29T07:10:59.965Z,12.20
2023-04-29T07:16:01.746Z,12.30
2023-04-29T07:21:03.722Z,12.30
2023-04-29T07:26:18.158Z,12.20
2023-04-29T07:31:21.701Z,12.10
2023-04-29T07:36:23.598Z,11.90
2023-04-29T07:41:25.386Z,12.00
2023-04-29T07:46:27.263Z,11.90
2023-04-29T07:51:29.711Z,12.00
2023-04-29T07:56:31.647Z,12.00
2023-04-29T08:01:33.427Z,11.90
2023-04-29T08:06:35.853Z,11.90
2023-04-29T08:11:37.773Z,11.90
2023-04-29T08:16:39.583Z,11.90
2023-04-29T08:21:41.495Z,11.80
2023-04-29T08:26:43.309Z,11.70
2023-04-29T08:31:45.153Z,11.70
2023-04-29T08:36:46.910Z,11.60
2023-04-29T08:41:51.400Z,11.50
2023-04-29T08:46:54.117Z,11.50
2023-04-29T08:51:56.012Z,11.50
2023-04-29T08:56:59.866Z,11.50
2023-04-29T09:02:02.127Z,11.60
2023-04-29T09:07:05.403Z,11.50
2023-04-29T09:12:07.651Z,11.40
2023-04-29T09:17:09.387Z,11.30
2023-04-29T09:22:11.571Z,11.20
2023-04-29T09:27:27.710Z,11.20
2023-04-29T09:32:29.494Z,11.00
2023-04-29T09:37:31.418Z,11.10
2023-04-29T09:42:43.416Z,10.80
2023-04-29T09:47:45.420Z,10.90
2023-04-29T09:52:48.072Z,10.80
2023-04-29T09:57:49.831Z,10.90
2023-04-29T10:02:54.079Z,10.90
2023-04-29T10:07:57.685Z,10.90
2023-04-29T10:13:01.678Z,10.80
2023-04-29T10:18:24.489Z,10.90
2023-04-29T10:23:27.183Z,10.80
2023-04-29T10:28:32.527Z,11.00
2023-04-29T10:33:36.494Z,11.10
2023-04-29T10:38:45.471Z,11.20
2023-04-29T10:43:47.965Z,11.30
2023-04-29T10:49:06.713Z,11.30
2023-04-29T10:54:14.566Z,11.50
2023-04-29T10:59:20.682Z,11.70
2023-04-29T11:04:23.509Z,11.90
2023-04-29T11:09:27.631Z,11.80
2023-04-29T11:14:42.083Z,11.90
2023-04-29T11:19:49.992Z,12.00
2023-04-29T11:25:01.972Z,12.20
2023-04-29T11:30:06.513Z,12.40
2023-04-29T11:35:12.553Z,12.50
2023-04-29T11:40:15.200Z,12.70
2023-04-29T11:45:20.300Z,13.00
2023-04-29T11:50:22.144Z,13.60
2023-04-29T11:55:24.748Z,13.50
2023-04-29T12:00:27.762Z,13.50
2023-04-29T12:05:30.075Z,13.60
2023-04-29T12:10:32.623Z,13.70
2023-04-29T12:15:34.405Z,13.70
2023-04-29T12:20:36.605Z,13.50
2023-04-29T12:25:38.590Z,13.30
2023-04-29T12:30:40.544Z,13.40
2023-04-29T12:35:42.245Z,13.40
2023-04-29T12:40:44.900Z,13.60
2023-04-29T12:45:46.678Z,13.60
2023-04-29T12:50:51.469Z,13.90
2023-04-29T12:55:53.864Z,13.80
2023-04-29T13:00:55.821Z,13.80
2023-04-29T13:05:59.113Z,14.20
2023-04-29T13:11:01.105Z,14.20
2023-04-29T13:16:03.116Z,14.30
2023-04-29T13:21:04.881Z,14.20
2023-04-29T13:26:08.845Z,14.20
2023-04-29T13:31:10.665Z,14.20
2023-04-29T13:36:12.386Z,14.30
2023-04-29T13:41:16.836Z,14.20
2023-04-29T13:46:20.882Z,14.50
2023-04-29T13:52:06.973Z,14.60
2023-04-29T14:06:57.973Z,14.60
2023-04-29T14:11:59.803Z,14.70
2023-04-29T14:17:01.569Z,14.80
2023-04-29T14:22:03.312Z,14.50
2023-04-29T14:27:05.198Z,14.40
2023-04-29T14:32:07.412Z,14.40
2023-04-29T14:37:09.166Z,14.50
2023-04-29T14:42:10.989Z,14.90
2023-04-29T14:47:12.756Z,14.90
2023-04-29T14:52:14.491Z,15.60
2023-04-29T14:57:16.246Z,15.70
2023-04-29T15:02:18.068Z,15.70
2023-04-29T15:07:20.128Z,15.80
2023-04-29T15:12:22.306Z,15.60
2023-04-29T15:17:26.331Z,15.70
2023-04-29T15:22:28.108Z,15.60
2023-04-29T15:27:29.795Z,15.90
2023-04-29T15:32:32.188Z,15.90
2023-04-29T15:37:34.608Z,15.50
2023-04-29T15:42:36.325Z,15.40
2023-04-29T15:47:38.146Z,15.50
2023-04-29T15:52:39.934Z,15.20
2023-04-29T15:57:42.651Z,15.00
2023-04-29T16:02:45.121Z,14.90
2023-04-29T16:07:46.937Z,14.80
2023-04-29T16:12:49.160Z,14.80
2023-04-29T16:17:51.992Z,14.80
2023-04-29T16:22:53.787Z,15.10
2023-04-29T16:27:55.693Z,15.50
2023-04-29T16:32:57.605Z,15.40
2023-04-29T16:37:59.385Z,15.60
2023-04-29T16:43:01.071Z,15.40
2023-04-29T16:48:03.093Z,15.20
2023-04-29T16:53:04.927Z,15.20
2023-04-29T16:58:06.633Z,15.20
2023-04-29T17:03:09.102Z,15.30
2023-04-29T17:08:10.928Z,15.20
2023-04-29T17:13:12.685Z,15.20
2023-04-29T17:18:14.451Z,15.30
2023-04-29T17:23:16.173Z,15.20
2023-04-29T17:28:18.020Z,15.10
2023-04-29T17:33:19.748Z,14.90
2023-04-29T17:38:21.566Z,14.70
2023-04-29T17:43:23.351Z,14.60
2023-04-29T17:48:25.242Z,14.50
2023-04-29T17:53:28.439Z,14.40
2023-04-29T17:58:30.238Z,14.30
2023-04-29T18:03:32.088Z,14.30
2023-04-29T18:08:33.870Z,14.30
2023-04-29T18:13:38.584Z,14.30
2023-04-29T18:18:40.729Z,14.30
2023-04-29T18:23:42.771Z,14.30
2023-04-29T18:28:46.357Z,14.20
2023-04-29T18:33:48.489Z,14.10
2023-04-29T18:38:50.800Z,14.00
2023-04-29T18:43:52.512Z,13.90
2023-04-29T18:48:54.632Z,13.80
2023-04-29T18:53:56.397Z,13.60
2023-04-29T18:58:58.128Z,13.50
2023-04-29T19:04:00.486Z,13.40
2023-04-29T19:09:02.418Z,13.30
2023-04-29T19:14:04.236Z,13.20
2023-04-29T19:19:06.670Z,13.10
2023-04-29T19:24:08.457Z,13.00
2023-04-29T19:29:10.254Z,12.90
2023-04-29T19:34:12.288Z,12.90
2023-04-29T19:39:14.959Z,12.70
2023-04-29T19:44:16.936Z,12.60
2023-04-29T19:49:19.192Z,12.50
2023-04-29T19:54:21.424Z,12.60
2023-04-29T19:59:23.348Z,12.70
2023-04-29T20:04:25.665Z,12.60
2023-04-29T20:09:27.488Z,12.60
2023-04-29T20:14:30.068Z,12.60
2023-04-29T20:19:31.835Z,12.50
2023-04-29T20:24:33.765Z,12.50
2023-04-29T20:29:35.479Z,12.40
2023-04-29T20:34:37.791Z,12.30
2023-04-29T20:39:39.679Z,12.20
2023-04-29T20:44:41.573Z,12.10
2023-04-29T20:49:43.566Z,12.00
2023-04-29T20:54:45.302Z,11.90
2023-04-29T20:59:47.113Z,11.90
2023-04-29T21:04:48.898Z,11.90
2023-04-29T21:09:50.978Z,11.80
2023-04-29T21:14:52.724Z,11.80
2023-04-29T21:19:56.190Z,11.70
2023-04-29T21:24:57.870Z,11.60
2023-04-29T21:29:59.593Z,11.50
2023-04-29T21:35:01.983Z,11.50
2023-04-29T21:40:04.325Z,11.40
2023-04-29T21:45:07.177Z,11.30
2023-04-29T21:50:09.849Z,11.10
2023-04-29T21:55:11.597Z,11.00
2023-04-29T22:00:40.030Z,10.90
2023-04-29T22:05:41.926Z,10.80
2023-04-29T22:10:43.640Z,10.60
2023-04-29T22:15:45.528Z,10.50
2023-04-29T22:20:47.300Z,10.40
2023-04-29T22:25:49.064Z,10.30
2023-04-29T22:30:50.921Z,10.20
2023-04-29T22:35:52.678Z,10.10
2023-04-29T22:40:54.396Z,10.00
2023-04-29T22:45:56.829Z,9.90
2023-04-29T22:50:59.596Z,9.90
2023-04-29T22:56:02.117Z,9.80
2023-04-29T23:01:03.950Z,9.70
2023-04-29T23:06:06.578Z,9.60
2023-04-29T23:11:08.505Z,9.50
2023-04-29T23:16:11.129Z,9.40
2023-04-29T23:21:13.025Z,9.30
2023-04-29T23:26:14.838Z,9.30
2023-04-29T23:31:16.863Z,9.10
2023-04-29T23:36:18.887Z,9.10
2023-04-29T23:41:20.784Z,9.00
2023-04-29T23:46:22.908Z,9.00
2023-04-29T23:51:26.178Z,8.90
2023-04-29T23:56:32.786Z,8.80
